createdAt,value
2018-12-10T00:01:59.402Z,83.22
2018-12-10T00:06:55.545Z,82.83
2018-12-10T00:11:51.555Z,83.00
2018-12-10T00:16:47.565Z,82.78
2018-12-10T00:21:43.578Z,82.54
2018-12-10T00:26:39.649Z,83.10
2018-12-10T00:31:37.158Z,82.67
2018-12-10T00:36:33.257Z,82.55
2018-12-10T00:41:29.391Z,82.75
2018-12-10T00:46:25.549Z,83.01
2018-12-10T00:51:21.565Z,83.16
2018-12-10T00:56:17.578Z,84.00
2018-12-10T01:01:13.738Z,84.02
2018-12-10T01:06:09.762Z,83.54
2018-12-10T01:11:05.774Z,83.81
2018-12-10T01:16:01.790Z,84.15
2018-12-10T01:20:57.841Z,83.44
2018-12-10T01:25:53.978Z,83.34
2018-12-10T01:30:50.001Z,83.10
2018-12-10T01:35:46.027Z,83.57
2018-12-10T01:40:42.066Z,82.74
2018-12-10T01:45:38.082Z,83.52
2018-12-10T01:50:34.196Z,85.61
2018-12-10T01:55:30.225Z,85.27
2018-12-10T02:00:26.273Z,85.59
2018-12-10T02:05:22.305Z,86.94
2018-12-10T02:10:18.474Z,86.35
2018-12-10T02:15:14.485Z,86.38
2018-12-10T02:20:10.546Z,87.17
2018-12-10T02:25:06.558Z,86.68
2018-12-10T02:30:03.104Z,86.56
2018-12-10T02:34:59.126Z,86.69
2018-12-10T02:39:55.152Z,85.54
2018-12-10T02:44:51.173Z,84.75
2018-12-10T02:49:47.293Z,84.39
2018-12-10T02:54:43.299Z,84.23
2018-12-10T02:59:39.306Z,84.31
2018-12-10T03:04:35.343Z,84.34
2018-12-10T03:09:31.372Z,83.89
2018-12-10T03:14:27.407Z,84.37
2018-12-10T03:19:23.553Z,84.35
2018-12-10T03:24:19.582Z,84.02
2018-12-10T03:29:15.610Z,83.87
2018-12-10T03:34:11.621Z,83.85
2018-12-10T03:39:07.703Z,83.95
2018-12-10T03:44:04.209Z,84.41
2018-12-10T03:49:00.234Z,83.94
2018-12-10T03:53:56.253Z,84.33
2018-12-10T03:58:52.275Z,84.33
2018-12-10T04:03:48.315Z,84.33
2018-12-10T04:08:44.393Z,84.08
2018-12-10T04:13:40.503Z,84.65
2018-12-10T04:18:36.545Z,84.87
2018-12-10T04:23:32.559Z,84.25
2018-12-10T04:28:28.556Z,84.82
2018-12-10T04:33:24.565Z,84.50
2018-12-10T04:38:20.602Z,84.40
2018-12-10T04:43:16.613Z,84.11
2018-12-10T04:48:12.639Z,84.11
2018-12-10T04:53:08.660Z,84.81
2018-12-10T04:58:04.668Z,85.02
2018-12-10T05:03:00.690Z,84.87
2018-12-10T05:07:56.705Z,85.00
2018-12-10T05:12:52.713Z,85.45
2018-12-10T05:17:48.721Z,85.48
2018-12-10T05:22:44.742Z,85.46
2018-12-10T05:27:40.761Z,85.29
2018-12-10T05:32:37.725Z,85.14
2018-12-10T05:37:33.738Z,85.01
2018-12-10T05:42:29.748Z,84.43
2018-12-10T05:47:25.790Z,84.34
2018-12-10T05:52:21.798Z,84.42
2018-12-10T05:57:17.822Z,84.52
2018-12-10T06:02:16.774Z,84.81
2018-12-10T06:07:12.825Z,84.91
2018-12-10T06:12:08.847Z,84.64
2018-12-10T06:17:04.875Z,84.87
2018-12-10T06:22:00.917Z,85.16
2018-12-10T06:26:57.061Z,84.77
2018-12-10T06:31:57.791Z,85.05
2018-12-10T06:36:55.998Z,85.14
2018-12-10T06:41:52.034Z,84.99
2018-12-10T06:46:48.085Z,85.92
2018-12-10T06:51:44.146Z,85.40
2018-12-10T06:56:40.198Z,85.69
2018-12-10T07:01:40.141Z,85.86
2018-12-10T07:06:36.285Z,85.37
2018-12-10T07:11:32.369Z,84.93
2018-12-10T07:16:28.437Z,84.59
2018-12-10T07:21:24.483Z,84.56
2018-12-10T07:26:20.552Z,84.27
2018-12-10T07:31:16.630Z,83.60
2018-12-10T07:36:12.711Z,84.01
2018-12-10T07:41:08.781Z,83.37
2018-12-10T07:46:04.862Z,83.55
2018-12-10T07:51:00.951Z,83.12
2018-12-10T07:55:57.010Z,82.90
2018-12-10T08:00:53.062Z,82.54
2018-12-10T08:05:49.087Z,82.72
2018-12-10T08:10:45.238Z,82.91
2018-12-10T08:15:41.330Z,83.13
2018-12-10T08:20:37.390Z,83.12
2018-12-10T08:25:33.434Z,84.64
2018-12-10T08:30:29.491Z,84.37
2018-12-10T08:35:25.650Z,83.92
2018-12-10T08:40:21.758Z,83.61
2018-12-10T08:45:17.882Z,83.91
2018-12-10T08:50:13.955Z,83.62
2018-12-10T08:55:10.028Z,83.15
2018-12-10T09:00:07.108Z,82.12
2018-12-10T09:05:03.715Z,82.17
2018-12-10T09:09:59.757Z,82.48
2018-12-10T09:14:55.811Z,82.19
2018-12-10T09:19:51.897Z,81.56
2018-12-10T09:24:47.958Z,82.33
2018-12-10T09:29:44.150Z,81.50
2018-12-10T09:34:40.615Z,81.51
2018-12-10T09:39:36.692Z,81.94
2018-12-10T09:44:32.757Z,82.13
2018-12-10T09:49:28.804Z,82.77
2018-12-10T09:54:24.998Z,82.69
2018-12-10T09:59:21.073Z,83.36
2018-12-10T10:04:17.149Z,82.26
2018-12-10T10:09:13.169Z,82.83
2018-12-10T10:14:09.221Z,82.75
2018-12-10T10:19:05.534Z,83.20
2018-12-10T10:24:01.623Z,83.79
2018-12-10T10:28:59.613Z,83.85
2018-12-10T10:33:55.767Z,83.65
2018-12-10T10:38:51.830Z,84.73
2018-12-10T10:43:47.920Z,84.96
2018-12-10T10:48:43.994Z,83.93
2018-12-10T10:53:40.187Z,82.85
2018-12-10T10:58:43.200Z,80.95
2018-12-10T11:03:39.261Z,80.57
2018-12-10T11:08:35.333Z,80.64
2018-12-10T11:13:31.430Z,80.33
2018-12-10T11:18:27.589Z,79.77
2018-12-10T11:23:23.666Z,80.75
2018-12-10T11:28:19.708Z,80.21
2018-12-10T11:33:15.785Z,79.22
2018-12-10T11:38:11.862Z,79.77
2018-12-10T11:43:08.321Z,79.25
2018-12-10T11:48:04.646Z,79.27
2018-12-10T11:53:00.964Z,78.44
2018-12-10T11:57:57.017Z,77.87
2018-12-10T12:02:53.574Z,79.24
2018-12-10T12:07:49.658Z,78.51
2018-12-10T12:12:45.733Z,79.49
2018-12-10T12:17:41.940Z,79.20
2018-12-10T12:22:38.005Z,78.50
2018-12-10T12:27:34.292Z,77.83
2018-12-10T12:32:31.164Z,77.74
2018-12-10T12:37:27.245Z,78.06
2018-12-10T12:42:23.312Z,78.28
2018-12-10T12:47:20.808Z,77.09
2018-12-10T12:52:19.978Z,76.52
2018-12-10T12:57:16.571Z,77.85
2018-12-10T13:02:16.895Z,86.38
2018-12-10T13:07:13.124Z,89.01
2018-12-10T13:12:09.434Z,88.49
2018-12-10T13:17:08.805Z,88.14
2018-12-10T13:22:05.122Z,86.79
2018-12-10T13:27:01.199Z,86.32
2018-12-10T13:32:02.277Z,86.30
2018-12-10T13:36:58.378Z,83.62
2018-12-10T13:41:54.606Z,84.57
2018-12-10T13:46:50.686Z,84.52
2018-12-10T13:51:46.762Z,83.62
2018-12-10T13:56:42.850Z,85.45
2018-12-10T14:01:40.583Z,84.64
2018-12-10T14:06:36.763Z,84.16
2018-12-10T14:11:32.863Z,83.74
2018-12-10T14:16:28.922Z,84.54
2018-12-10T14:21:24.981Z,84.81
2018-12-10T14:26:21.029Z,83.64
2018-12-10T14:31:17.100Z,83.27
2018-12-10T14:36:13.195Z,83.39
2018-12-10T14:41:09.367Z,83.75
2018-12-10T14:46:05.460Z,83.14
2018-12-10T14:51:01.527Z,82.40
2018-12-10T14:55:57.615Z,82.51
2018-12-10T15:00:53.685Z,82.64
2018-12-10T15:05:49.891Z,83.19
2018-12-10T15:10:46.017Z,83.76
2018-12-10T15:15:42.077Z,83.37
2018-12-10T15:20:38.187Z,84.29
2018-12-10T15:25:34.259Z,84.56
2018-12-10T15:30:30.461Z,84.84
2018-12-10T15:35:26.692Z,85.53
2018-12-10T15:40:23.469Z,85.46
2018-12-10T15:45:19.971Z,85.31
2018-12-10T15:50:16.013Z,85.37
2018-12-10T15:55:12.206Z,85.15
2018-12-10T16:00:08.598Z,85.30
2018-12-10T16:05:04.901Z,85.10
2018-12-10T16:10:01.014Z,84.20
2018-12-10T16:14:57.160Z,84.59
2018-12-10T16:19:53.308Z,84.67
2018-12-10T16:24:49.454Z,84.03
2018-12-10T16:29:45.591Z,84.13
2018-12-10T16:34:41.654Z,84.55
2018-12-10T16:39:37.765Z,83.66
2018-12-10T16:44:35.493Z,82.85
2018-12-10T16:49:31.686Z,83.76
2018-12-10T16:54:27.721Z,82.32
2018-12-10T16:59:24.083Z,83.08
2018-12-10T17:04:20.235Z,83.58
2018-12-10T17:09:16.451Z,83.51
2018-12-10T17:14:12.949Z,83.16
2018-12-10T17:19:10.597Z,82.66
2018-12-10T17:24:06.665Z,82.36
2018-12-10T17:29:02.924Z,82.78
2018-12-10T17:33:59.060Z,82.56
2018-12-10T17:38:55.232Z,82.58
2018-12-10T17:43:51.401Z,83.26
2018-12-10T17:48:47.517Z,83.14
2018-12-10T17:53:43.990Z,83.27
2018-12-10T17:58:40.477Z,83.32
2018-12-10T18:03:36.621Z,83.07
2018-12-10T18:08:32.653Z,82.52
2018-12-10T18:13:28.785Z,83.90
2018-12-10T18:18:24.809Z,83.60
2018-12-10T18:23:20.831Z,84.16
2018-12-10T18:28:17.682Z,84.47
2018-12-10T18:33:13.850Z,84.69
2018-12-10T18:38:09.866Z,85.05
2018-12-10T18:43:05.896Z,85.44
2018-12-10T18:48:01.926Z,85.39
2018-12-10T18:52:59.870Z,85.92
2018-12-10T18:57:57.091Z,85.96
2018-12-10T19:02:53.179Z,86.31
2018-12-10T19:07:49.243Z,86.14
2018-12-10T19:12:45.311Z,85.54
2018-12-10T19:17:41.431Z,86.09
2018-12-10T19:22:37.561Z,85.59
2018-12-10T19:27:33.583Z,85.70
2018-12-10T19:32:30.377Z,85.35
2018-12-10T19:37:26.519Z,85.04
2018-12-10T19:42:22.652Z,85.57
2018-12-10T19:47:19.210Z,85.57
2018-12-10T19:52:15.580Z,85.62
2018-12-10T19:57:11.636Z,86.00
2018-12-10T20:02:09.010Z,86.57
2018-12-10T20:07:05.712Z,85.90
2018-12-10T20:12:01.887Z,86.44
2018-12-10T20:16:58.031Z,86.67
2018-12-10T20:21:54.063Z,86.74
2018-12-10T20:26:50.219Z,86.32
2018-12-10T20:31:46.303Z,85.94
2018-12-10T20:36:42.492Z,85.66
2018-12-10T20:41:38.670Z,85.96
2018-12-10T20:46:34.691Z,86.19
2018-12-10T20:51:30.804Z,86.49
2018-12-10T20:56:26.857Z,87.29
2018-12-10T21:01:22.884Z,87.10
2018-12-10T21:06:25.022Z,87.55
2018-12-10T21:11:21.041Z,88.43
2018-12-10T21:16:17.146Z,88.44
2018-12-10T21:21:13.221Z,88.70
2018-12-10T21:26:09.238Z,89.28
2018-12-10T21:31:05.262Z,89.66
2018-12-10T21:36:01.289Z,89.29
2018-12-10T21:40:57.361Z,89.20
2018-12-10T21:45:53.455Z,89.48
2018-12-10T21:50:49.529Z,89.55
2018-12-10T21:55:45.550Z,89.63
2018-12-10T22:00:41.950Z,89.50
2018-12-10T22:05:38.198Z,89.72
2018-12-10T22:10:34.346Z,90.05
2018-12-10T22:15:30.465Z,90.01
2018-12-10T22:20:26.507Z,90.20
2018-12-10T22:25:22.549Z,90.36
2018-12-10T22:30:18.576Z,90.49
2018-12-10T22:35:14.604Z,90.66
2018-12-10T22:40:10.691Z,90.57
2018-12-10T22:45:06.825Z,90.93
2018-12-10T22:50:04.796Z,90.40
2018-12-10T22:55:00.841Z,90.71
2018-12-10T22:59:57.128Z,90.26
2018-12-10T23:04:53.218Z,90.10
2018-12-10T23:09:49.373Z,89.87
2018-12-10T23:14:45.453Z,89.52
2018-12-10T23:19:41.545Z,88.89
2018-12-10T23:24:37.592Z,88.82
2018-12-10T23:29:33.616Z,88.45
2018-12-10T23:34:29.642Z,88.96
2018-12-10T23:39:25.700Z,88.79
2018-12-10T23:44:27.778Z,88.92
2018-12-10T23:49:23.802Z,88.83
2018-12-10T23:54:19.828Z,88.56
2018-12-10T23:59:15.920Z,89.28
